sensor_id;sensor_type;location;lat;lon;timestamp;P1;durP1;ratioP1;P2;durP2;ratioP2
7076;SDS011;3579;48.956;9.154;2023-04-28T00:01:24;1.43;;;1.27;;
7076;SDS011;3579;48.956;9.154;2023-04-28T00:03:50;1.20;;;1.10;;
7076;SDS011;3579;48.956;9.154;2023-04-28T00:06:17;1.17;;;1.00;;
7076;SDS011;3579;48.956;9.154;2023-04-28T00:08:43;1.47;;;1.20;;
7076;SDS011;3579;48.956;9.154;2023-04-28T00:11:10;1.47;;;1.30;;
7076;SDS011;3579;48.956;9.154;2023-04-28T00:13:36;1.40;;;1.00;;
7076;SDS011;3579;48.956;9.154;2023-04-28T00:16:02;1.13;;;1.03;;
7076;SDS011;3579;48.956;9.154;2023-04-28T00:18:29;1.30;;;1.20;;
7076;SDS011;3579;48.956;9.154;2023-04-28T00:20:55;1.20;;;1.10;;
7076;SDS011;3579;48.956;9.154;2023-04-28T00:23:21;1.20;;;1.10;;
7076;SDS011;3579;48.956;9.154;2023-04-28T00:25:53;1.30;;;1.10;;
7076;SDS011;3579;48.956;9.154;2023-04-28T00:28:21;1.10;;;1.00;;
7076;SDS011;3579;48.956;9.154;2023-04-28T00:30:47;1.50;;;1.20;;
7076;SDS011;3579;48.956;9.154;2023-04-28T00:33:13;1.40;;;1.20;;
7076;SDS011;3579;48.956;9.154;2023-04-28T00:35:40;1.47;;;1.30;;
7076;SDS011;3579;48.956;9.154;2023-04-28T00:38:06;1.27;;;1.17;;
7076;SDS011;3579;48.956;9.154;2023-04-28T00:40:33;1.23;;;1.13;;
7076;SDS011;3579;48.956;9.154;2023-04-28T00:43:00;1.30;;;1.07;;
7076;SDS011;3579;48.956;9.154;2023-04-28T00:45:26;1.60;;;1.10;;
7076;SDS011;3579;48.956;9.154;2023-04-28T00:47:52;1.27;;;1.13;;
7076;SDS011;3579;48.956;9.154;2023-04-28T00:50:19;1.33;;;1.20;;
7076;SDS011;3579;48.956;9.154;2023-04-28T00:52:45;1.13;;;1.03;;
7076;SDS011;3579;48.956;9.154;2023-04-28T00:55:12;1.47;;;1.27;;
7076;SDS011;3579;48.956;9.154;2023-04-28T00:57:40;1.03;;;0.93;;
7076;SDS011;3579;48.956;9.154;2023-04-28T01:00:07;1.20;;;1.10;;
7076;SDS011;3579;48.956;9.154;2023-04-28T01:02:34;1.10;;;1.00;;
7076;SDS011;3579;48.956;9.154;2023-04-28T01:05:01;1.70;;;1.10;;
7076;SDS011;3579;48.956;9.154;2023-04-28T01:07:28;2.97;;;1.17;;
7076;SDS011;3579;48.956;9.154;2023-04-28T01:09:54;1.77;;;1.20;;
7076;SDS011;3579;48.956;9.154;2023-04-28T01:12:21;1.00;;;0.90;;
7076;SDS011;3579;48.956;9.154;2023-04-28T01:14:47;1.30;;;1.20;;
7076;SDS011;3579;48.956;9.154;2023-04-28T01:17:14;1.67;;;1.30;;
7076;SDS011;3579;48.956;9.154;2023-04-28T01:19:41;1.27;;;1.17;;
7076;SDS011;3579;48.956;9.154;2023-04-28T01:22:07;1.30;;;1.20;;
7076;SDS011;3579;48.956;9.154;2023-04-28T01:24:38;1.40;;;1.20;;
7076;SDS011;3579;48.956;9.154;2023-04-28T01:27:04;1.20;;;1.10;;
7076;SDS011;3579;48.956;9.154;2023-04-28T01:29:30;1.50;;;1.20;;
7076;SDS011;3579;48.956;9.154;2023-04-28T01:31:56;1.27;;;1.10;;
7076;SDS011;3579;48.956;9.154;2023-04-28T01:34:22;1.43;;;1.30;;
7076;SDS011;3579;48.956;9.154;2023-04-28T01:36:48;1.77;;;1.30;;
7076;SDS011;3579;48.956;9.154;2023-04-28T01:39:14;1.50;;;1.30;;
7076;SDS011;3579;48.956;9.154;2023-04-28T01:41:41;1.10;;;1.00;;
7076;SDS011;3579;48.956;9.154;2023-04-28T01:44:07;1.20;;;1.10;;
7076;SDS011;3579;48.956;9.154;2023-04-28T01:46:33;1.13;;;1.03;;
7076;SDS011;3579;48.956;9.154;2023-04-28T01:48:59;1.53;;;1.20;;
7076;SDS011;3579;48.956;9.154;2023-04-28T01:51:25;1.63;;;1.30;;
7076;SDS011;3579;48.956;9.154;2023-04-28T01:53:51;1.53;;;1.10;;
7076;SDS011;3579;48.956;9.154;2023-04-28T01:56:17;1.10;;;1.00;;
7076;SDS011;3579;48.956;9.154;2023-04-28T01:58:43;1.20;;;1.10;;
7076;SDS011;3579;48.956;9.154;2023-04-28T02:01:09;1.30;;;1.20;;
7076;SDS011;3579;48.956;9.154;2023-04-28T02:03:35;1.23;;;1.07;;
7076;SDS011;3579;48.956;9.154;2023-04-28T02:06:01;1.20;;;1.10;;
7076;SDS011;3579;48.956;9.154;2023-04-28T02:08:29;1.23;;;1.10;;
7076;SDS011;3579;48.956;9.154;2023-04-28T02:10:55;1.27;;;1.17;;
7076;SDS011;3579;48.956;9.154;2023-04-28T02:13:22;1.33;;;1.13;;
7076;SDS011;3579;48.956;9.154;2023-04-28T02:15:48;1.43;;;1.20;;
7076;SDS011;3579;48.956;9.154;2023-04-28T02:18:14;1.23;;;1.13;;
7076;SDS011;3579;48.956;9.154;2023-04-28T02:20:40;1.30;;;1.20;;
7076;SDS011;3579;48.956;9.154;2023-04-28T02:23:06;1.73;;;1.20;;
7076;SDS011;3579;48.956;9.154;2023-04-28T02:25:33;1.93;;;1.13;;
7076;SDS011;3579;48.956;9.154;2023-04-28T02:27:59;1.80;;;1.37;;
7076;SDS011;3579;48.956;9.154;2023-04-28T02:30:25;1.20;;;1.10;;
7076;SDS011;3579;48.956;9.154;2023-04-28T02:32:51;1.50;;;1.10;;
7076;SDS011;3579;48.956;9.154;2023-04-28T02:35:17;1.47;;;1.20;;
7076;SDS011;3579;48.956;9.154;2023-04-28T02:37:43;1.43;;;1.10;;
7076;SDS011;3579;48.956;9.154;2023-04-28T02:40:09;1.83;;;1.20;;
7076;SDS011;3579;48.956;9.154;2023-04-28T02:42:35;1.27;;;1.00;;
7076;SDS011;3579;48.956;9.154;2023-04-28T02:45:01;1.30;;;1.10;;
7076;SDS011;3579;48.956;9.154;2023-04-28T02:47:28;1.20;;;1.03;;
7076;SDS011;3579;48.956;9.154;2023-04-28T02:49:54;1.30;;;1.10;;
7076;SDS011;3579;48.956;9.154;2023-04-28T02:52:20;1.30;;;1.20;;
7076;SDS011;3579;48.956;9.154;2023-04-28T02:54:46;1.27;;;1.10;;
7076;SDS011;3579;48.956;9.154;2023-04-28T02:57:13;1.30;;;1.10;;
7076;SDS011;3579;48.956;9.154;2023-04-28T02:59:39;1.20;;;1.10;;
7076;SDS011;3579;48.956;9.154;2023-04-28T03:02:06;1.40;;;1.10;;
7076;SDS011;3579;48.956;9.154;2023-04-28T03:04:33;1.30;;;1.20;;
7076;SDS011;3579;48.956;9.154;2023-04-28T03:06:59;0.90;;;0.90;;
7076;SDS011;3579;48.956;9.154;2023-04-28T03:09:25;1.27;;;1.17;;
7076;SDS011;3579;48.956;9.154;2023-04-28T03:11:51;1.33;;;1.20;;
7076;SDS011;3579;48.956;9.154;2023-04-28T03:14:17;1.33;;;1.20;;
7076;SDS011;3579;48.956;9.154;2023-04-28T03:16:43;1.30;;;1.13;;
7076;SDS011;3579;48.956;9.154;2023-04-28T03:19:10;0.97;;;0.97;;
7076;SDS011;3579;48.956;9.154;2023-04-28T03:21:36;1.27;;;1.00;;
7076;SDS011;3579;48.956;9.154;2023-04-28T03:24:02;1.10;;;1.00;;
7076;SDS011;3579;48.956;9.154;2023-04-28T03:26:28;1.30;;;1.20;;
7076;SDS011;3579;48.956;9.154;2023-04-28T03:28:54;1.20;;;1.00;;
7076;SDS011;3579;48.956;9.154;2023-04-28T03:31:21;1.00;;;1.00;;
7076;SDS011;3579;48.956;9.154;2023-04-28T03:33:47;1.10;;;1.00;;
7076;SDS011;3579;48.956;9.154;2023-04-28T03:36:13;1.30;;;1.00;;
7076;SDS011;3579;48.956;9.154;2023-04-28T03:38:39;1.10;;;1.00;;
7076;SDS011;3579;48.956;9.154;2023-04-28T03:41:05;1.13;;;1.03;;
7076;SDS011;3579;48.956;9.154;2023-04-28T03:43:31;1.07;;;0.97;;
7076;SDS011;3579;48.956;9.154;2023-04-28T03:45:59;1.10;;;1.00;;
7076;SDS011;3579;48.956;9.154;2023-04-28T03:48:26;1.47;;;1.20;;
7076;SDS011;3579;48.956;9.154;2023-04-28T03:50:52;0.93;;;0.90;;
7076;SDS011;3579;48.956;9.154;2023-04-28T03:53:18;1.30;;;1.10;;
7076;SDS011;3579;48.956;9.154;2023-04-28T03:55:44;1.50;;;1.17;;
7076;SDS011;3579;48.956;9.154;2023-04-28T03:58:10;1.20;;;1.10;;
7076;SDS011;3579;48.956;9.154;2023-04-28T04:00:36;1.10;;;1.00;;
7076;SDS011;3579;48.956;9.154;2023-04-28T04:03:02;1.87;;;1.30;;
7076;SDS011;3579;48.956;9.154;2023-04-28T04:05:28;1.27;;;1.17;;
7076;SDS011;3579;48.956;9.154;2023-04-28T04:07:54;1.27;;;1.17;;
7076;SDS011;3579;48.956;9.154;2023-04-28T04:10:20;1.13;;;1.03;;
7076;SDS011;3579;48.956;9.154;2023-04-28T04:12:46;1.30;;;1.20;;
7076;SDS011;3579;48.956;9.154;2023-04-28T04:15:12;1.30;;;1.20;;
7076;SDS011;3579;48.956;9.154;2023-04-28T04:17:38;1.10;;;1.00;;
7076;SDS011;3579;48.956;9.154;2023-04-28T04:20:04;1.20;;;1.10;;
7076;SDS011;3579;48.956;9.154;2023-04-28T04:22:31;1.20;;;1.10;;
7076;SDS011;3579;48.956;9.154;2023-04-28T04:24:57;1.30;;;1.20;;
7076;SDS011;3579;48.956;9.154;2023-04-28T04:27:23;1.47;;;1.20;;
7076;SDS011;3579;48.956;9.154;2023-04-28T04:29:49;1.10;;;1.00;;
7076;SDS011;3579;48.956;9.154;2023-04-28T04:32:15;1.30;;;1.20;;
7076;SDS011;3579;48.956;9.154;2023-04-28T04:34:41;1.20;;;1.10;;
7076;SDS011;3579;48.956;9.154;2023-04-28T04:37:08;1.50;;;1.30;;
7076;SDS011;3579;48.956;9.154;2023-04-28T04:39:34;1.23;;;1.13;;
7076;SDS011;3579;48.956;9.154;2023-04-28T04:42:01;1.53;;;1.30;;
7076;SDS011;3579;48.956;9.154;2023-04-28T04:44:27;1.20;;;1.10;;
7076;SDS011;3579;48.956;9.154;2023-04-28T04:46:53;1.33;;;1.13;;
7076;SDS011;3579;48.956;9.154;2023-04-28T04:49:19;1.20;;;1.10;;
7076;SDS011;3579;48.956;9.154;2023-04-28T04:51:45;1.30;;;1.00;;
7076;SDS011;3579;48.956;9.154;2023-04-28T04:54:11;1.17;;;1.07;;
7076;SDS011;3579;48.956;9.154;2023-04-28T04:56:37;1.30;;;1.10;;
7076;SDS011;3579;48.956;9.154;2023-04-28T04:59:03;1.33;;;1.10;;
7076;SDS011;3579;48.956;9.154;2023-04-28T05:01:29;1.20;;;1.10;;
7076;SDS011;3579;48.956;9.154;2023-04-28T05:03:55;1.00;;;1.00;;
7076;SDS011;3579;48.956;9.154;2023-04-28T05:06:21;2.00;;;1.20;;
7076;SDS011;3579;48.956;9.154;2023-04-28T05:08:47;1.50;;;1.33;;
7076;SDS011;3579;48.956;9.154;2023-04-28T05:11:14;1.20;;;1.10;;
7076;SDS011;3579;48.956;9.154;2023-04-28T05:13:40;1.07;;;0.97;;
7076;SDS011;3579;48.956;9.154;2023-04-28T05:16:06;1.47;;;1.20;;
7076;SDS011;3579;48.956;9.154;2023-04-28T05:18:32;1.20;;;1.10;;
7076;SDS011;3579;48.956;9.154;2023-04-28T05:20:58;1.23;;;1.10;;
7076;SDS011;3579;48.956;9.154;2023-04-28T05:23:25;1.47;;;1.27;;
7076;SDS011;3579;48.956;9.154;2023-04-28T05:25:51;1.20;;;1.10;;
7076;SDS011;3579;48.956;9.154;2023-04-28T05:28:18;1.27;;;1.17;;
7076;SDS011;3579;48.956;9.154;2023-04-28T05:30:44;1.30;;;1.20;;
7076;SDS011;3579;48.956;9.154;2023-04-28T05:33:10;1.30;;;1.20;;
7076;SDS011;3579;48.956;9.154;2023-04-28T05:35:36;1.33;;;1.20;;
7076;SDS011;3579;48.956;9.154;2023-04-28T05:38:02;1.47;;;1.30;;
7076;SDS011;3579;48.956;9.154;2023-04-28T05:40:28;1.33;;;1.23;;
7076;SDS011;3579;48.956;9.154;2023-04-28T05:42:54;1.30;;;1.20;;
7076;SDS011;3579;48.956;9.154;2023-04-28T05:45:20;1.30;;;1.20;;
7076;SDS011;3579;48.956;9.154;2023-04-28T05:47:46;1.30;;;1.20;;
7076;SDS011;3579;48.956;9.154;2023-04-28T05:50:12;1.77;;;1.23;;
7076;SDS011;3579;48.956;9.154;2023-04-28T05:52:39;1.20;;;1.10;;
7076;SDS011;3579;48.956;9.154;2023-04-28T05:55:05;1.37;;;1.27;;
7076;SDS011;3579;48.956;9.154;2023-04-28T05:57:31;1.30;;;1.13;;
7076;SDS011;3579;48.956;9.154;2023-04-28T05:59:57;1.27;;;1.17;;
7076;SDS011;3579;48.956;9.154;2023-04-28T06:02:23;1.10;;;1.00;;
7076;SDS011;3579;48.956;9.154;2023-04-28T06:04:49;1.30;;;1.20;;
7076;SDS011;3579;48.956;9.154;2023-04-28T06:07:15;1.20;;;1.10;;
7076;SDS011;3579;48.956;9.154;2023-04-28T06:09:41;1.30;;;1.20;;
7076;SDS011;3579;48.956;9.154;2023-04-28T06:12:07;1.10;;;1.00;;
7076;SDS011;3579;48.956;9.154;2023-04-28T06:14:33;1.30;;;1.20;;
7076;SDS011;3579;48.956;9.154;2023-04-28T06:17:02;1.27;;;1.17;;
7076;SDS011;3579;48.956;9.154;2023-04-28T06:19:28;1.20;;;1.10;;
7076;SDS011;3579;48.956;9.154;2023-04-28T06:21:55;1.20;;;1.10;;
7076;SDS011;3579;48.956;9.154;2023-04-28T06:24:20;1.30;;;1.20;;
7076;SDS011;3579;48.956;9.154;2023-04-28T06:26:46;1.23;;;1.10;;
7076;SDS011;3579;48.956;9.154;2023-04-28T06:29:13;1.33;;;1.20;;
7076;SDS011;3579;48.956;9.154;2023-04-28T06:31:39;1.50;;;1.20;;
7076;SDS011;3579;48.956;9.154;2023-04-28T06:34:05;1.30;;;1.20;;
7076;SDS011;3579;48.956;9.154;2023-04-28T06:36:31;1.40;;;1.20;;
7076;SDS011;3579;48.956;9.154;2023-04-28T06:38:58;1.70;;;1.20;;
7076;SDS011;3579;48.956;9.154;2023-04-28T06:41:24;1.47;;;1.30;;
7076;SDS011;3579;48.956;9.154;2023-04-28T06:43:50;1.47;;;1.20;;
7076;SDS011;3579;48.956;9.154;2023-04-28T06:46:16;1.37;;;1.20;;
7076;SDS011;3579;48.956;9.154;2023-04-28T06:48:42;1.42;;;1.33;;
7076;SDS011;3579;48.956;9.154;2023-04-28T06:51:08;3.57;;;1.20;;
7076;SDS011;3579;48.956;9.154;2023-04-28T06:53:34;3.07;;;1.13;;
7076;SDS011;3579;48.956;9.154;2023-04-28T06:56:00;4.70;;;1.30;;
7076;SDS011;3579;48.956;9.154;2023-04-28T06:58:27;5.27;;;1.20;;
7076;SDS011;3579;48.956;9.154;2023-04-28T07:00:53;2.93;;;1.20;;
7076;SDS011;3579;48.956;9.154;2023-04-28T07:03:19;2.53;;;1.20;;
7076;SDS011;3579;48.956;9.154;2023-04-28T07:05:45;1.20;;;1.10;;
7076;SDS011;3579;48.956;9.154;2023-04-28T07:08:11;2.60;;;1.37;;
7076;SDS011;3579;48.956;9.154;2023-04-28T07:10:37;2.67;;;1.20;;
7076;SDS011;3579;48.956;9.154;2023-04-28T07:13:03;4.37;;;1.33;;
7076;SDS011;3579;48.956;9.154;2023-04-28T07:15:29;3.07;;;1.23;;
7076;SDS011;3579;48.956;9.154;2023-04-28T07:17:55;3.83;;;1.30;;
7076;SDS011;3579;48.956;9.154;2023-04-28T07:20:21;3.77;;;1.27;;
7076;SDS011;3579;48.956;9.154;2023-04-28T07:22:47;4.80;;;1.20;;
7076;SDS011;3579;48.956;9.154;2023-04-28T07:25:13;4.90;;;1.20;;
7076;SDS011;3579;48.956;9.154;2023-04-28T07:27:39;4.93;;;1.30;;
7076;SDS011;3579;48.956;9.154;2023-04-28T07:30:06;2.13;;;1.13;;
7076;SDS011;3579;48.956;9.154;2023-04-28T07:32:32;3.80;;;1.23;;
7076;SDS011;3579;48.956;9.154;2023-04-28T07:34:58;7.67;;;1.37;;
7076;SDS011;3579;48.956;9.154;2023-04-28T07:37:24;4.30;;;1.27;;
7076;SDS011;3579;48.956;9.154;2023-04-28T07:39:50;4.17;;;1.37;;
7076;SDS011;3579;48.956;9.154;2023-04-28T07:42:16;6.03;;;1.10;;
7076;SDS011;3579;48.956;9.154;2023-04-28T07:44:43;2.60;;;1.30;;
7076;SDS011;3579;48.956;9.154;2023-04-28T07:47:09;2.43;;;1.23;;
7076;SDS011;3579;48.956;9.154;2023-04-28T07:49:35;5.70;;;1.43;;
7076;SDS011;3579;48.956;9.154;2023-04-28T07:52:01;5.73;;;1.30;;
7076;SDS011;3579;48.956;9.154;2023-04-28T07:54:27;7.77;;;1.50;;
7076;SDS011;3579;48.956;9.154;2023-04-28T07:56:54;4.83;;;1.30;;
7076;SDS011;3579;48.956;9.154;2023-04-28T07:59:22;6.83;;;1.50;;
7076;SDS011;3579;48.956;9.154;2023-04-28T08:01:48;5.87;;;1.50;;
7076;SDS011;3579;48.956;9.154;2023-04-28T08:04:14;4.73;;;1.57;;
7076;SDS011;3579;48.956;9.154;2023-04-28T08:06:40;5.60;;;1.40;;
7076;SDS011;3579;48.956;9.154;2023-04-28T08:09:06;6.87;;;1.50;;
7076;SDS011;3579;48.956;9.154;2023-04-28T08:11:32;6.40;;;1.70;;
7076;SDS011;3579;48.956;9.154;2023-04-28T08:13:59;8.30;;;1.67;;
7076;SDS011;3579;48.956;9.154;2023-04-28T08:16:27;3.33;;;1.30;;
7076;SDS011;3579;48.956;9.154;2023-04-28T08:18:54;3.97;;;1.50;;
7076;SDS011;3579;48.956;9.154;2023-04-28T08:21:20;4.97;;;1.50;;
7076;SDS011;3579;48.956;9.154;2023-04-28T08:23:46;5.83;;;1.50;;
7076;SDS011;3579;48.956;9.154;2023-04-28T08:26:12;6.87;;;1.27;;
7076;SDS011;3579;48.956;9.154;2023-04-28T08:28:38;2.67;;;1.10;;
7076;SDS011;3579;48.956;9.154;2023-04-28T08:31:05;5.90;;;1.20;;
7076;SDS011;3579;48.956;9.154;2023-04-28T08:33:31;5.97;;;1.43;;
7076;SDS011;3579;48.956;9.154;2023-04-28T08:35:57;3.20;;;1.30;;
7076;SDS011;3579;48.956;9.154;2023-04-28T08:38:23;5.83;;;1.40;;
7076;SDS011;3579;48.956;9.154;2023-04-28T08:40:50;5.30;;;1.30;;
7076;SDS011;3579;48.956;9.154;2023-04-28T08:43:16;4.60;;;1.17;;
7076;SDS011;3579;48.956;9.154;2023-04-28T08:45:43;4.43;;;1.20;;
7076;SDS011;3579;48.956;9.154;2023-04-28T08:48:19;1.90;;;1.30;;
7076;SDS011;3579;48.956;9.154;2023-04-28T08:50:52;2.87;;;1.50;;
7076;SDS011;3579;48.956;9.154;2023-04-28T08:53:21;4.17;;;1.50;;
7076;SDS011;3579;48.956;9.154;2023-04-28T08:55:53;4.97;;;1.40;;
7076;SDS011;3579;48.956;9.154;2023-04-28T08:58:24;3.43;;;1.40;;
7076;SDS011;3579;48.956;9.154;2023-04-28T09:00:54;4.00;;;1.60;;
7076;SDS011;3579;48.956;9.154;2023-04-28T09:03:20;1.50;;;1.30;;
7076;SDS011;3579;48.956;9.154;2023-04-28T09:05:47;4.43;;;1.40;;
7076;SDS011;3579;48.956;9.154;2023-04-28T09:08:13;1.73;;;1.30;;
7076;SDS011;3579;48.956;9.154;2023-04-28T09:10:40;2.33;;;1.20;;
7076;SDS011;3579;48.956;9.154;2023-04-28T09:13:06;3.77;;;1.60;;
7076;SDS011;3579;48.956;9.154;2023-04-28T09:18:03;3.10;;;1.43;;
7076;SDS011;3579;48.956;9.154;2023-04-28T09:20:31;3.50;;;1.40;;
7076;SDS011;3579;48.956;9.154;2023-04-28T09:23:11;9.30;;;1.50;;
7076;SDS011;3579;48.956;9.154;2023-04-28T09:28:23;3.73;;;1.40;;
7076;SDS011;3579;48.956;9.154;2023-04-28T09:30:49;4.17;;;1.40;;
7076;SDS011;3579;48.956;9.154;2023-04-28T09:33:15;2.47;;;1.30;;
7076;SDS011;3579;48.956;9.154;2023-04-28T09:35:42;6.10;;;1.50;;
7076;SDS011;3579;48.956;9.154;2023-04-28T09:38:10;2.20;;;1.40;;
7076;SDS011;3579;48.956;9.154;2023-04-28T09:45:50;6.03;;;1.50;;
7076;SDS011;3579;48.956;9.154;2023-04-28T09:48:18;8.40;;;1.40;;
7076;SDS011;3579;48.956;9.154;2023-04-28T09:50:54;3.87;;;1.37;;
7076;SDS011;3579;48.956;9.154;2023-04-28T09:53:24;5.63;;;1.50;;
7076;SDS011;3579;48.956;9.154;2023-04-28T09:55:52;3.40;;;1.30;;
7076;SDS011;3579;48.956;9.154;2023-04-28T09:58:19;9.93;;;1.70;;
7076;SDS011;3579;48.956;9.154;2023-04-28T10:00:51;5.13;;;1.40;;
7076;SDS011;3579;48.956;9.154;2023-04-28T10:03:20;5.37;;;1.33;;
7076;SDS011;3579;48.956;9.154;2023-04-28T10:05:48;3.07;;;1.20;;
7076;SDS011;3579;48.956;9.154;2023-04-28T10:08:16;4.90;;;1.50;;
7076;SDS011;3579;48.956;9.154;2023-04-28T10:10:44;5.97;;;1.50;;
7076;SDS011;3579;48.956;9.154;2023-04-28T10:13:14;6.13;;;1.50;;
7076;SDS011;3579;48.956;9.154;2023-04-28T10:15:42;4.27;;;1.40;;
7076;SDS011;3579;48.956;9.154;2023-04-28T10:18:08;4.90;;;2.20;;
7076;SDS011;3579;48.956;9.154;2023-04-28T10:20:37;5.93;;;2.03;;
7076;SDS011;3579;48.956;9.154;2023-04-28T10:25:42;5.50;;;1.97;;
7076;SDS011;3579;48.956;9.154;2023-04-28T10:28:12;3.47;;;1.67;;
7076;SDS011;3579;48.956;9.154;2023-04-28T10:30:38;5.63;;;1.60;;
7076;SDS011;3579;48.956;9.154;2023-04-28T10:38:10;7.50;;;1.50;;
7076;SDS011;3579;48.956;9.154;2023-04-28T10:40:44;2.17;;;1.47;;
7076;SDS011;3579;48.956;9.154;2023-04-28T10:43:33;5.17;;;1.50;;
7076;SDS011;3579;48.956;9.154;2023-04-28T10:56:07;3.33;;;1.50;;
7076;SDS011;3579;48.956;9.154;2023-04-28T10:58:40;3.93;;;1.80;;
7076;SDS011;3579;48.956;9.154;2023-04-28T11:06:33;2.27;;;1.57;;
7076;SDS011;3579;48.956;9.154;2023-04-28T11:16:51;4.07;;;1.80;;
7076;SDS011;3579;48.956;9.154;2023-04-28T11:19:25;2.50;;;1.80;;
7076;SDS011;3579;48.956;9.154;2023-04-28T11:21:53;3.00;;;2.00;;
7076;SDS011;3579;48.956;9.154;2023-04-28T11:24:24;4.47;;;2.17;;
7076;SDS011;3579;48.956;9.154;2023-04-28T11:26:54;4.17;;;2.20;;
7076;SDS011;3579;48.956;9.154;2023-04-28T11:29:37;4.77;;;2.20;;
7076;SDS011;3579;48.956;9.154;2023-04-28T11:32:08;2.70;;;2.10;;
7076;SDS011;3579;48.956;9.154;2023-04-28T11:34:34;3.53;;;2.23;;
7076;SDS011;3579;48.956;9.154;2023-04-28T11:37:01;4.87;;;2.20;;
7076;SDS011;3579;48.956;9.154;2023-04-28T11:39:31;2.80;;;2.10;;
7076;SDS011;3579;48.956;9.154;2023-04-28T11:41:59;6.87;;;2.53;;
7076;SDS011;3579;48.956;9.154;2023-04-28T11:44:27;4.37;;;2.40;;
7076;SDS011;3579;48.956;9.154;2023-04-28T11:46:58;4.53;;;2.27;;
7076;SDS011;3579;48.956;9.154;2023-04-28T11:49:28;3.13;;;2.10;;
7076;SDS011;3579;48.956;9.154;2023-04-28T11:51:56;3.80;;;1.90;;
7076;SDS011;3579;48.956;9.154;2023-04-28T11:54:25;3.47;;;1.70;;
7076;SDS011;3579;48.956;9.154;2023-04-28T11:56:52;4.53;;;1.90;;
7076;SDS011;3579;48.956;9.154;2023-04-28T11:59:38;3.10;;;1.60;;
7076;SDS011;3579;48.956;9.154;2023-04-28T12:02:05;4.23;;;1.70;;
7076;SDS011;3579;48.956;9.154;2023-04-28T12:04:32;4.43;;;1.63;;
7076;SDS011;3579;48.956;9.154;2023-04-28T12:09:35;3.03;;;1.60;;
7076;SDS011;3579;48.956;9.154;2023-04-28T12:12:08;6.57;;;1.60;;
7076;SDS011;3579;48.956;9.154;2023-04-28T12:14:58;2.50;;;1.60;;
7076;SDS011;3579;48.956;9.154;2023-04-28T12:20:03;2.83;;;1.60;;
7076;SDS011;3579;48.956;9.154;2023-04-28T12:22:42;2.93;;;1.60;;
7076;SDS011;3579;48.956;9.154;2023-04-28T12:25:12;1.97;;;1.40;;
7076;SDS011;3579;48.956;9.154;2023-04-28T12:27:41;2.97;;;1.57;;
7076;SDS011;3579;48.956;9.154;2023-04-28T12:30:23;2.00;;;1.50;;
7076;SDS011;3579;48.956;9.154;2023-04-28T12:32:50;2.80;;;1.37;;
7076;SDS011;3579;48.956;9.154;2023-04-28T12:35:16;3.73;;;1.40;;
7076;SDS011;3579;48.956;9.154;2023-04-28T12:37:45;3.40;;;1.17;;
7076;SDS011;3579;48.956;9.154;2023-04-28T12:40:11;3.10;;;1.60;;
7076;SDS011;3579;48.956;9.154;2023-04-28T12:42:39;2.30;;;1.43;;
7076;SDS011;3579;48.956;9.154;2023-04-28T12:45:05;4.37;;;1.63;;
7076;SDS011;3579;48.956;9.154;2023-04-28T12:47:33;5.87;;;1.53;;
7076;SDS011;3579;48.956;9.154;2023-04-28T12:49:59;3.53;;;1.50;;
7076;SDS011;3579;48.956;9.154;2023-04-28T12:52:25;6.33;;;1.70;;
7076;SDS011;3579;48.956;9.154;2023-04-28T12:54:51;5.53;;;1.40;;
7076;SDS011;3579;48.956;9.154;2023-04-28T12:57:18;3.60;;;1.50;;
7076;SDS011;3579;48.956;9.154;2023-04-28T12:59:45;2.73;;;1.47;;
7076;SDS011;3579;48.956;9.154;2023-04-28T13:02:12;3.00;;;1.47;;
7076;SDS011;3579;48.956;9.154;2023-04-28T13:04:40;4.23;;;1.30;;
7076;SDS011;3579;48.956;9.154;2023-04-28T13:07:13;2.93;;;1.33;;
7076;SDS011;3579;48.956;9.154;2023-04-28T13:09:39;3.63;;;1.60;;
7076;SDS011;3579;48.956;9.154;2023-04-28T13:12:07;2.67;;;1.47;;
7076;SDS011;3579;48.956;9.154;2023-04-28T13:14:33;3.57;;;1.30;;
7076;SDS011;3579;48.956;9.154;2023-04-28T13:16:59;2.27;;;1.20;;
7076;SDS011;3579;48.956;9.154;2023-04-28T13:19:27;3.57;;;1.50;;
7076;SDS011;3579;48.956;9.154;2023-04-28T13:21:54;1.70;;;1.40;;
7076;SDS011;3579;48.956;9.154;2023-04-28T13:24:21;3.33;;;1.50;;
7076;SDS011;3579;48.956;9.154;2023-04-28T13:26:47;3.53;;;1.50;;
7076;SDS011;3579;48.956;9.154;2023-04-28T13:29:13;4.10;;;1.20;;
7076;SDS011;3579;48.956;9.154;2023-04-28T13:31:40;2.27;;;1.40;;
7076;SDS011;3579;48.956;9.154;2023-04-28T13:34:06;2.50;;;1.50;;
7076;SDS011;3579;48.956;9.154;2023-04-28T13:36:33;3.13;;;1.40;;
7076;SDS011;3579;48.956;9.154;2023-04-28T13:38:59;1.73;;;1.30;;
7076;SDS011;3579;48.956;9.154;2023-04-28T13:41:26;2.73;;;1.30;;
7076;SDS011;3579;48.956;9.154;2023-04-28T13:43:52;4.00;;;1.13;;
7076;SDS011;3579;48.956;9.154;2023-04-28T13:46:18;3.20;;;1.20;;
7076;SDS011;3579;48.956;9.154;2023-04-28T13:48:45;2.83;;;1.33;;
7076;SDS011;3579;48.956;9.154;2023-04-28T13:51:11;1.57;;;1.30;;
7076;SDS011;3579;48.956;9.154;2023-04-28T13:53:37;5.23;;;1.30;;
7076;SDS011;3579;48.956;9.154;2023-04-28T13:56:04;4.43;;;1.40;;
7076;SDS011;3579;48.956;9.154;2023-04-28T13:58:31;2.43;;;1.23;;
7076;SDS011;3579;48.956;9.154;2023-04-28T14:00:57;1.43;;;1.10;;
7076;SDS011;3579;48.956;9.154;2023-04-28T14:03:24;5.10;;;1.30;;
7076;SDS011;3579;48.956;9.154;2023-04-28T14:05:51;6.03;;;1.30;;
7076;SDS011;3579;48.956;9.154;2023-04-28T14:08:20;2.13;;;1.10;;
7076;SDS011;3579;48.956;9.154;2023-04-28T14:10:47;2.10;;;1.20;;
7076;SDS011;3579;48.956;9.154;2023-04-28T14:13:14;3.40;;;1.10;;
7076;SDS011;3579;48.956;9.154;2023-04-28T14:15:40;2.93;;;1.10;;
7076;SDS011;3579;48.956;9.154;2023-04-28T14:18:07;1.93;;;1.50;;
7076;SDS011;3579;48.956;9.154;2023-04-28T14:20:36;5.00;;;1.30;;
7076;SDS011;3579;48.956;9.154;2023-04-28T14:23:02;3.17;;;1.27;;
7076;SDS011;3579;48.956;9.154;2023-04-28T14:25:28;3.23;;;1.20;;
7076;SDS011;3579;48.956;9.154;2023-04-28T14:27:54;2.03;;;1.10;;
7076;SDS011;3579;48.956;9.154;2023-04-28T14:30:20;2.43;;;1.30;;
7076;SDS011;3579;48.956;9.154;2023-04-28T14:32:47;8.40;;;1.30;;
7076;SDS011;3579;48.956;9.154;2023-04-28T14:35:14;4.77;;;1.30;;
7076;SDS011;3579;48.956;9.154;2023-04-28T14:37:40;3.37;;;1.23;;
7076;SDS011;3579;48.956;9.154;2023-04-28T14:40:07;4.57;;;1.30;;
7076;SDS011;3579;48.956;9.154;2023-04-28T14:42:34;2.90;;;1.30;;
7076;SDS011;3579;48.956;9.154;2023-04-28T14:45:10;6.93;;;1.30;;
7076;SDS011;3579;48.956;9.154;2023-04-28T14:47:36;6.83;;;1.40;;
7076;SDS011;3579;48.956;9.154;2023-04-28T14:50:03;4.50;;;1.10;;
7076;SDS011;3579;48.956;9.154;2023-04-28T14:52:30;1.50;;;1.30;;
7076;SDS011;3579;48.956;9.154;2023-04-28T14:54:58;1.80;;;1.13;;
7076;SDS011;3579;48.956;9.154;2023-04-28T14:57:24;2.87;;;1.10;;
7076;SDS011;3579;48.956;9.154;2023-04-28T14:59:51;3.10;;;1.23;;
7076;SDS011;3579;48.956;9.154;2023-04-28T15:02:18;2.60;;;1.20;;
7076;SDS011;3579;48.956;9.154;2023-04-28T15:04:46;3.40;;;1.27;;
7076;SDS011;3579;48.956;9.154;2023-04-28T15:07:13;1.43;;;1.20;;
7076;SDS011;3579;48.956;9.154;2023-04-28T15:09:39;3.10;;;1.30;;
7076;SDS011;3579;48.956;9.154;2023-04-28T15:12:05;2.33;;;1.20;;
7076;SDS011;3579;48.956;9.154;2023-04-28T15:14:31;2.83;;;1.33;;
7076;SDS011;3579;48.956;9.154;2023-04-28T15:16:57;2.90;;;1.40;;
7076;SDS011;3579;48.956;9.154;2023-04-28T15:19:24;2.43;;;1.17;;
7076;SDS011;3579;48.956;9.154;2023-04-28T15:21:50;3.33;;;1.13;;
7076;SDS011;3579;48.956;9.154;2023-04-28T15:24:17;3.07;;;1.10;;
7076;SDS011;3579;48.956;9.154;2023-04-28T15:26:45;5.37;;;1.33;;
7076;SDS011;3579;48.956;9.154;2023-04-28T15:29:11;1.73;;;1.20;;
7076;SDS011;3579;48.956;9.154;2023-04-28T15:31:37;1.97;;;1.03;;
7076;SDS011;3579;48.956;9.154;2023-04-28T15:34:04;4.13;;;1.47;;
7076;SDS011;3579;48.956;9.154;2023-04-28T15:36:31;1.30;;;1.20;;
7076;SDS011;3579;48.956;9.154;2023-04-28T15:39:02;1.60;;;1.17;;
7076;SDS011;3579;48.956;9.154;2023-04-28T15:41:31;1.93;;;1.00;;
7076;SDS011;3579;48.956;9.154;2023-04-28T15:43:58;3.50;;;1.20;;
7076;SDS011;3579;48.956;9.154;2023-04-28T15:46:25;1.43;;;1.30;;
7076;SDS011;3579;48.956;9.154;2023-04-28T15:48:54;3.40;;;1.50;;
7076;SDS011;3579;48.956;9.154;2023-04-28T15:51:21;9.33;;;1.20;;
7076;SDS011;3579;48.956;9.154;2023-04-28T15:53:48;5.07;;;1.50;;
7076;SDS011;3579;48.956;9.154;2023-04-28T15:56:17;2.03;;;1.30;;
7076;SDS011;3579;48.956;9.154;2023-04-28T15:58:43;3.50;;;1.10;;
7076;SDS011;3579;48.956;9.154;2023-04-28T16:01:10;5.40;;;1.17;;